createdAt,value
2018-12-05T00:04:25.817Z,12.33
2018-12-05T00:09:20.599Z,12.43
2018-12-05T00:14:15.428Z,12.20
2018-12-05T00:19:10.177Z,13.17
2018-12-05T00:24:05.112Z,12.80
2018-12-05T00:28:59.893Z,12.13
2018-12-05T00:33:54.720Z,12.47
2018-12-05T00:38:49.543Z,13.87
2018-12-05T00:43:44.329Z,13.10
2018-12-05T00:48:39.106Z,14.17
2018-12-05T00:53:33.887Z,14.47
2018-12-05T00:58:28.633Z,15.50
2018-12-05T01:03:23.431Z,16.90
2018-12-05T01:08:18.557Z,16.97
2018-12-05T01:13:13.340Z,15.67
2018-12-05T01:18:08.071Z,16.20
2018-12-05T01:23:02.898Z,16.37
2018-12-05T01:27:57.716Z,14.83
2018-12-05T01:32:52.487Z,14.00
2018-12-05T01:37:47.332Z,15.20
2018-12-05T01:42:42.090Z,14.83
2018-12-05T01:47:36.836Z,15.60
2018-12-05T01:52:31.681Z,16.47
2018-12-05T01:57:26.449Z,15.50
2018-12-05T02:02:21.240Z,15.90
2018-12-05T02:07:16.039Z,16.23
2018-12-05T02:12:10.825Z,15.50
2018-12-05T02:17:07.330Z,16.77
2018-12-05T02:22:02.172Z,17.30
2018-12-05T02:26:56.943Z,16.23
2018-12-05T02:31:51.784Z,16.97
2018-12-05T02:36:46.600Z,16.63
2018-12-05T02:41:41.390Z,17.37
2018-12-05T02:46:36.149Z,18.40
2018-12-05T02:51:30.926Z,17.70
2018-12-05T02:56:25.724Z,17.47
2018-12-05T03:01:20.557Z,16.93
2018-12-05T03:06:15.316Z,16.97
2018-12-05T03:11:10.123Z,16.23
2018-12-05T03:16:04.910Z,15.43
2018-12-05T03:20:59.719Z,14.97
2018-12-05T03:25:54.451Z,14.83
2018-12-05T03:30:49.322Z,14.60
2018-12-05T03:35:44.314Z,14.87
2018-12-05T03:40:39.132Z,15.17
2018-12-05T03:45:33.939Z,15.10
2018-12-05T03:50:28.767Z,16.67
2018-12-05T03:55:23.557Z,17.07
2018-12-05T04:00:18.481Z,17.03
2018-12-05T04:05:13.291Z,16.13
2018-12-05T04:10:08.219Z,17.57
2018-12-05T04:15:03.031Z,19.07
2018-12-05T04:19:57.828Z,18.10
2018-12-05T04:24:52.593Z,17.27
2018-12-05T04:29:47.453Z,16.00
2018-12-05T04:34:42.269Z,18.03
2018-12-05T04:39:37.090Z,17.13
2018-12-05T04:44:32.828Z,16.67
2018-12-05T04:49:27.840Z,16.67
2018-12-05T04:54:22.675Z,16.53
2018-12-05T04:59:17.483Z,16.30
2018-12-05T05:04:12.373Z,14.33
2018-12-05T05:09:08.876Z,13.47
2018-12-05T05:14:03.726Z,14.37
2018-12-05T05:18:58.625Z,14.87
2018-12-05T05:23:53.437Z,14.63
2018-12-05T05:28:48.238Z,14.27
2018-12-05T05:33:43.210Z,13.60
2018-12-05T05:38:38.016Z,12.07
2018-12-05T05:43:32.833Z,12.53
2018-12-05T05:48:27.656Z,11.93
2018-12-05T05:53:22.519Z,12.10
2018-12-05T05:58:17.431Z,11.57
2018-12-05T06:03:12.258Z,11.53
2018-12-05T06:08:07.167Z,11.80
2018-12-05T06:13:02.010Z,11.33
2018-12-05T06:17:56.819Z,11.73
2018-12-05T06:22:51.689Z,10.87
2018-12-05T06:27:46.495Z,11.27
2018-12-05T06:32:41.361Z,11.20
2018-12-05T06:37:36.222Z,10.23
2018-12-05T06:42:31.023Z,10.40
2018-12-05T06:47:25.896Z,10.27
2018-12-05T06:52:20.679Z,10.83
2018-12-05T06:57:15.555Z,11.00
2018-12-05T07:02:10.466Z,9.90
2018-12-05T07:07:05.349Z,10.90
2018-12-05T07:12:00.178Z,10.40
2018-12-05T07:16:55.163Z,10.67
2018-12-05T07:21:50.024Z,10.60
2018-12-05T07:26:44.879Z,10.03
2018-12-05T07:31:39.771Z,10.70
2018-12-05T07:36:34.606Z,9.40
2018-12-05T07:41:29.430Z,9.73
2018-12-05T07:46:24.176Z,9.90
2018-12-05T07:51:19.032Z,10.43
2018-12-05T07:56:13.826Z,9.73
2018-12-05T08:01:08.671Z,9.90
2018-12-05T08:06:03.477Z,10.23
2018-12-05T08:10:58.452Z,9.80
2018-12-05T08:15:53.348Z,9.30
2018-12-05T08:20:48.160Z,10.33
2018-12-05T08:25:42.976Z,8.37
2018-12-05T08:30:37.771Z,8.87
2018-12-05T08:35:32.600Z,7.93
2018-12-05T08:40:27.459Z,9.53
2018-12-05T08:45:22.533Z,8.87
2018-12-05T08:50:17.320Z,8.20
2018-12-05T08:55:12.389Z,9.07
2018-12-05T09:00:08.807Z,9.10
2018-12-05T09:05:03.627Z,8.77
2018-12-05T09:09:58.500Z,9.37
2018-12-05T09:14:53.395Z,8.93
2018-12-05T09:19:48.226Z,8.40
2018-12-05T09:24:43.032Z,9.13
2018-12-05T09:29:37.963Z,8.67
2018-12-05T09:34:32.804Z,10.17
2018-12-05T09:39:27.630Z,9.67
2018-12-05T09:44:22.561Z,9.73
2018-12-05T09:49:17.399Z,9.67
2018-12-05T09:54:12.261Z,9.73
2018-12-05T09:59:07.051Z,9.63
2018-12-05T10:04:01.887Z,9.50
2018-12-05T10:08:56.803Z,10.77
2018-12-05T10:13:51.747Z,10.90
2018-12-05T10:18:46.580Z,11.20
2018-12-05T10:23:41.362Z,10.50
2018-12-05T10:28:36.188Z,11.70
2018-12-05T10:33:31.243Z,11.07
2018-12-05T10:38:26.179Z,9.77
2018-12-05T10:43:21.043Z,10.53
2018-12-05T10:48:15.905Z,10.83
2018-12-05T10:53:10.717Z,10.50
2018-12-05T10:58:05.548Z,10.53
2018-12-05T11:03:05.559Z,11.63
2018-12-05T11:08:05.843Z,10.50
2018-12-05T11:13:05.770Z,11.93
2018-12-05T11:18:06.194Z,10.63
2018-12-05T11:23:05.976Z,11.20
2018-12-05T11:28:01.262Z,11.07
2018-12-05T11:32:56.295Z,10.80
2018-12-05T11:37:51.126Z,10.60
2018-12-05T11:42:46.025Z,11.13
2018-12-05T11:47:40.878Z,10.37
2018-12-05T11:52:35.750Z,10.97
2018-12-05T11:57:30.527Z,10.70
2018-12-05T12:02:25.314Z,10.73
2018-12-05T12:07:20.072Z,10.30
2018-12-05T12:12:19.943Z,10.17
2018-12-05T12:17:14.784Z,10.67
2018-12-05T12:22:09.727Z,10.07
2018-12-05T12:27:04.588Z,10.57
2018-12-05T12:31:59.403Z,10.37
2018-12-05T12:36:54.171Z,10.13
2018-12-05T12:41:49.115Z,10.50
2018-12-05T12:46:43.931Z,10.83
2018-12-05T12:51:38.839Z,10.47
2018-12-05T12:56:33.851Z,10.13
2018-12-05T13:01:28.750Z,10.57
2018-12-05T13:06:23.537Z,10.00
2018-12-05T13:11:18.360Z,9.43
2018-12-05T13:16:13.149Z,10.23
2018-12-05T13:21:08.060Z,10.67
2018-12-05T13:26:02.850Z,10.57
2018-12-05T13:30:57.654Z,10.27
2018-12-05T13:35:52.479Z,10.20
2018-12-05T13:40:47.373Z,10.60
2018-12-05T13:45:42.188Z,10.40
2018-12-05T13:50:37.033Z,10.47
2018-12-05T13:55:31.931Z,10.77
2018-12-05T14:00:27.054Z,10.43
2018-12-05T14:05:21.926Z,10.60
2018-12-05T14:10:16.767Z,10.47
2018-12-05T14:15:11.868Z,11.20
2018-12-05T14:20:08.979Z,11.00
2018-12-05T14:25:03.829Z,11.67
2018-12-05T14:29:58.652Z,12.10
2018-12-05T14:34:53.504Z,12.37
2018-12-05T14:39:48.410Z,11.57
2018-12-05T14:44:43.224Z,11.40
2018-12-05T14:49:38.249Z,11.30
2018-12-05T14:54:33.261Z,12.23
2018-12-05T14:59:28.102Z,11.83
2018-12-05T15:04:22.907Z,11.90
2018-12-05T15:09:17.785Z,11.77
2018-12-05T15:14:12.595Z,11.07
2018-12-05T15:19:07.399Z,12.50
2018-12-05T15:24:02.279Z,11.97
2018-12-05T15:28:57.153Z,12.07
2018-12-05T15:33:52.067Z,12.60
2018-12-05T15:38:46.945Z,12.63
2018-12-05T15:43:41.865Z,13.20
2018-12-05T15:48:36.821Z,12.33
2018-12-05T15:53:31.692Z,12.40
2018-12-05T15:58:26.647Z,12.63
2018-12-05T16:03:21.455Z,11.87
2018-12-05T16:08:16.309Z,13.80
2018-12-05T16:13:11.183Z,12.37
2018-12-05T16:18:06.105Z,12.50
2018-12-05T16:23:00.913Z,12.20
2018-12-05T16:27:56.065Z,13.70
2018-12-05T16:32:50.890Z,12.33
2018-12-05T16:37:45.779Z,12.23
2018-12-05T16:42:40.846Z,12.43
2018-12-05T16:47:35.679Z,13.20
2018-12-05T16:52:30.571Z,12.87
2018-12-05T16:57:25.427Z,13.30
2018-12-05T17:02:20.273Z,12.97
2018-12-05T17:07:15.244Z,13.30
2018-12-05T17:12:10.035Z,14.37
2018-12-05T17:17:05.055Z,13.10
2018-12-05T17:21:59.851Z,12.80
2018-12-05T17:26:54.757Z,13.23
2018-12-05T17:31:49.553Z,13.73
2018-12-05T17:36:44.353Z,14.00
2018-12-05T17:41:39.171Z,13.23
2018-12-05T17:46:34.042Z,12.67
2018-12-05T17:51:28.893Z,13.17
2018-12-05T17:56:23.708Z,13.80
2018-12-05T18:01:18.553Z,13.17
2018-12-05T18:06:13.388Z,12.73
2018-12-05T18:11:08.191Z,12.97
2018-12-05T18:16:03.055Z,12.83
2018-12-05T18:20:58.023Z,11.80
2018-12-05T18:25:52.976Z,12.27
2018-12-05T18:30:47.844Z,12.23
2018-12-05T18:35:42.697Z,10.60
2018-12-05T18:40:37.510Z,11.60
2018-12-05T18:45:32.353Z,11.33
2018-12-05T18:50:27.274Z,11.87
2018-12-05T18:55:22.329Z,12.17
2018-12-05T19:00:17.172Z,11.73
2018-12-05T19:05:12.062Z,11.67
2018-12-05T19:10:06.945Z,12.30
2018-12-05T19:15:02.673Z,11.30
2018-12-05T19:19:58.714Z,11.10
2018-12-05T19:24:53.734Z,11.53
2018-12-05T19:29:49.910Z,12.90
2018-12-05T19:34:44.706Z,11.90
2018-12-05T19:39:41.452Z,11.03
2018-12-05T19:44:36.757Z,11.57
2018-12-05T19:49:32.294Z,11.03
2018-12-05T19:54:28.905Z,11.87
2018-12-05T19:59:27.587Z,11.47
2018-12-05T20:04:27.405Z,12.03
2018-12-05T20:09:26.799Z,11.97
2018-12-05T20:14:34.368Z,11.47
2018-12-05T20:19:33.929Z,11.90
2018-12-05T20:24:28.916Z,12.43
2018-12-05T20:29:23.852Z,11.57
2018-12-05T20:34:18.715Z,11.67
2018-12-05T20:39:13.635Z,11.73
2018-12-05T20:44:08.854Z,12.50
2018-12-05T20:49:03.952Z,12.43
2018-12-05T20:53:59.515Z,11.70
2018-12-05T20:58:54.351Z,12.23
2018-12-05T21:10:03.436Z,12.57
2018-12-05T21:15:01.172Z,13.03
2018-12-05T21:20:03.209Z,12.57
2018-12-05T21:25:01.430Z,12.60
2018-12-05T21:29:59.528Z,13.00
2018-12-05T21:34:57.407Z,11.53
2018-12-05T21:39:57.647Z,12.27
2018-12-05T21:44:55.536Z,11.87
2018-12-05T21:49:53.043Z,12.87
2018-12-05T21:54:50.965Z,12.13
2018-12-05T21:59:51.709Z,11.93
2018-12-05T22:04:50.996Z,12.20
2018-12-05T22:09:49.546Z,11.00
2018-12-05T22:19:58.743Z,11.93
2018-12-05T22:24:58.132Z,11.20
2018-12-05T22:29:56.875Z,12.67
2018-12-05T22:34:56.891Z,12.47
2018-12-05T22:39:55.075Z,12.63
2018-12-05T22:44:52.710Z,12.40
2018-12-05T22:49:50.980Z,13.13
2018-12-05T22:54:50.904Z,12.50
2018-12-05T22:59:49.403Z,12.07
2018-12-05T23:04:46.274Z,12.17
2018-12-05T23:09:43.115Z,13.17
2018-12-05T23:14:43.903Z,12.50
2018-12-05T23:19:41.803Z,12.87
2018-12-05T23:24:40.462Z,13.13
2018-12-05T23:29:39.978Z,13.10
2018-12-05T23:34:38.140Z,12.93
2018-12-05T23:39:37.027Z,13.17
2018-12-05T23:44:35.800Z,13.30
2018-12-05T23:49:34.956Z,13.73
2018-12-05T23:54:33.473Z,13.33
2018-12-05T23:59:39.167Z,13.60
